createdAt,value
2022-09-12T00:02:09.287Z,14.63
2022-09-12T00:06:22.922Z,14.65
2022-09-12T00:10:31.393Z,14.67
2022-09-12T00:14:38.920Z,14.66
2022-09-12T00:18:47.640Z,14.65
2022-09-12T00:22:55.705Z,14.63
2022-09-12T00:27:03.346Z,14.63
2022-09-12T00:31:12.883Z,14.62
2022-09-12T00:35:21.079Z,14.62
2022-09-12T00:39:29.061Z,14.61
2022-09-12T00:43:42.086Z,14.60
2022-09-12T00:47:49.841Z,14.57
2022-09-12T00:51:59.926Z,14.51
2022-09-12T00:56:08.212Z,14.49
2022-09-12T01:00:18.748Z,14.49
2022-09-12T01:04:28.207Z,14.47
2022-09-12T01:08:37.327Z,14.48
2022-09-12T01:12:46.409Z,14.47
2022-09-12T01:16:54.465Z,14.45
2022-09-12T01:21:10.096Z,14.42
2022-09-12T01:25:22.575Z,14.39
2022-09-12T01:30:05.994Z,14.35
2022-09-12T01:34:22.348Z,14.32
2022-09-12T01:38:36.453Z,14.31
2022-09-12T01:42:48.832Z,14.31
2022-09-12T01:46:59.632Z,14.33
2022-09-12T01:51:11.384Z,14.36
2022-09-12T01:55:23.108Z,14.36
2022-09-12T01:59:34.842Z,14.35
2022-09-12T02:03:45.119Z,14.34
2022-09-12T02:07:57.473Z,14.33
2022-09-12T02:12:07.906Z,14.30
2022-09-12T02:16:20.980Z,14.24
2022-09-12T02:20:47.290Z,14.19
2022-09-12T02:24:58.481Z,14.11
2022-09-12T02:29:07.354Z,14.09
2022-09-12T02:33:20.611Z,14.08
2022-09-12T02:37:36.982Z,14.10
2022-09-12T02:41:44.927Z,14.11
2022-09-12T02:45:52.942Z,14.11
2022-09-12T02:50:01.987Z,14.11
2022-09-12T02:54:11.027Z,14.08
2022-09-12T02:58:20.916Z,14.06
2022-09-12T03:02:33.996Z,14.02
2022-09-12T03:06:50.960Z,14.00
2022-09-12T03:11:20.155Z,13.97
2022-09-12T03:15:36.469Z,13.99
2022-09-12T03:19:54.435Z,14.02
2022-09-12T03:24:10.874Z,14.01
2022-09-12T03:28:20.371Z,14.00
2022-09-12T03:32:44.375Z,14.02
2022-09-12T03:36:52.880Z,14.04
2022-09-12T03:41:00.723Z,14.07
2022-09-12T03:45:11.827Z,14.10
2022-09-12T03:49:21.202Z,14.10
2022-09-12T03:53:29.092Z,14.01
2022-09-12T03:57:37.237Z,13.95
2022-09-12T04:01:44.871Z,13.89
2022-09-12T04:05:52.472Z,13.91
2022-09-12T04:10:01.002Z,13.96
2022-09-12T04:14:09.333Z,14.00
2022-09-12T04:18:20.092Z,14.02
2022-09-12T04:22:27.814Z,14.04
2022-09-12T04:26:36.370Z,14.03
2022-09-12T04:30:44.009Z,14.03
2022-09-12T04:34:52.553Z,14.00
2022-09-12T04:39:01.393Z,14.02
2022-09-12T04:43:14.282Z,14.03
2022-09-12T04:47:23.510Z,14.06
2022-09-12T04:51:33.848Z,14.09
2022-09-12T04:55:41.432Z,14.16
2022-09-12T04:59:49.354Z,14.21
2022-09-12T05:03:58.090Z,14.26
2022-09-12T05:08:06.305Z,14.30
2022-09-12T05:12:14.792Z,14.31
2022-09-12T05:16:23.509Z,14.31
2022-09-12T05:20:33.214Z,14.33
2022-09-12T05:24:58.231Z,14.34
2022-09-12T05:29:07.615Z,14.34
2022-09-12T05:33:15.293Z,14.35
2022-09-12T05:37:23.495Z,14.38
2022-09-12T05:41:34.041Z,14.42
2022-09-12T05:45:44.703Z,14.41
2022-09-12T05:49:52.544Z,14.42
2022-09-12T05:54:01.873Z,14.41
2022-09-12T05:58:09.716Z,14.42
2022-09-12T06:02:17.500Z,14.46
2022-09-12T06:06:28.120Z,14.50
2022-09-12T06:10:35.857Z,14.54
2022-09-12T06:14:43.626Z,14.60
2022-09-12T06:18:53.708Z,14.60
2022-09-12T06:23:01.480Z,14.62
2022-09-12T06:27:09.285Z,14.65
2022-09-12T06:31:18.963Z,14.70
2022-09-12T06:35:27.544Z,14.77
2022-09-12T06:39:36.930Z,14.81
2022-09-12T06:43:44.843Z,14.83
2022-09-12T06:47:51.891Z,14.88
2022-09-12T06:51:59.485Z,14.95
2022-09-12T06:56:11.789Z,15.01
2022-09-12T07:00:19.809Z,15.10
2022-09-12T07:04:28.353Z,15.19
2022-09-12T07:08:37.890Z,15.26
2022-09-12T07:12:45.370Z,15.27
2022-09-12T07:16:53.925Z,15.27
2022-09-12T07:21:04.327Z,15.44
2022-09-12T07:25:12.321Z,15.56
2022-09-12T07:29:37.632Z,15.72
2022-09-12T07:33:46.451Z,15.74
2022-09-12T07:37:55.270Z,15.72
2022-09-12T07:42:03.428Z,15.78
2022-09-12T07:46:12.984Z,15.90
2022-09-12T07:50:25.444Z,16.04
2022-09-12T07:54:33.555Z,16.16
2022-09-12T07:58:43.964Z,16.33
2022-09-12T08:02:56.783Z,16.43
2022-09-12T08:07:06.729Z,16.62
2022-09-12T08:11:16.809Z,16.80
2022-09-12T08:15:24.094Z,16.83
2022-09-12T08:19:32.103Z,16.89
2022-09-12T08:23:42.821Z,16.96
2022-09-12T08:27:50.886Z,16.98
2022-09-12T08:31:58.727Z,17.02
2022-09-12T08:36:12.016Z,17.05
2022-09-12T08:40:21.198Z,17.00
2022-09-12T08:44:39.544Z,17.01
2022-09-12T08:48:48.920Z,17.08
2022-09-12T08:53:00.298Z,17.17
2022-09-12T08:57:10.382Z,17.23
2022-09-12T09:01:28.828Z,17.25
2022-09-12T09:05:49.933Z,17.23
2022-09-12T09:10:16.051Z,17.34
2022-09-12T09:14:51.193Z,17.38
2022-09-12T09:19:01.088Z,17.20
2022-09-12T09:23:13.562Z,17.03
2022-09-12T09:27:46.643Z,16.83
2022-09-12T09:31:56.152Z,16.70
2022-09-12T09:36:14.992Z,16.72
2022-09-12T09:40:28.533Z,16.69
2022-09-12T09:44:35.835Z,16.60
2022-09-12T09:48:50.166Z,16.62
2022-09-12T09:53:00.019Z,16.75
2022-09-12T09:57:08.944Z,16.88
2022-09-12T10:01:19.279Z,17.03
2022-09-12T10:05:28.959Z,17.23
2022-09-12T10:09:38.682Z,17.31
2022-09-12T10:13:57.026Z,17.37
2022-09-12T10:18:05.105Z,17.46
2022-09-12T10:22:18.968Z,17.63
2022-09-12T10:26:27.071Z,17.82
2022-09-12T10:30:34.625Z,17.94
2022-09-12T10:34:45.479Z,17.93
2022-09-12T10:38:55.121Z,17.92
2022-09-12T10:43:03.939Z,17.97
2022-09-12T10:47:24.916Z,17.94
2022-09-12T10:51:32.275Z,17.93
2022-09-12T10:55:39.905Z,18.00
2022-09-12T11:00:03.802Z,18.20
2022-09-12T11:04:25.956Z,18.25
2022-09-12T11:08:45.703Z,18.20
2022-09-12T11:12:58.195Z,18.19
2022-09-12T11:17:13.487Z,18.19
2022-09-12T11:21:33.498Z,18.21
2022-09-12T11:25:47.852Z,18.46
2022-09-12T11:30:01.402Z,18.71
2022-09-12T11:34:12.098Z,18.78
2022-09-12T11:38:40.424Z,18.84
2022-09-12T11:42:49.404Z,18.86
2022-09-12T11:46:57.204Z,18.87
2022-09-12T11:51:07.339Z,18.86
2022-09-12T11:55:21.350Z,18.88
2022-09-12T11:59:34.725Z,18.97
2022-09-12T12:03:44.775Z,19.05
2022-09-12T12:07:56.324Z,19.12
2022-09-12T12:12:08.800Z,19.06
2022-09-12T12:16:19.475Z,18.94
2022-09-12T12:20:28.691Z,18.87
2022-09-12T12:24:36.310Z,18.81
2022-09-12T12:29:05.246Z,18.78
2022-09-12T12:33:53.565Z,18.79
2022-09-12T12:38:01.390Z,18.83
2022-09-12T12:42:09.894Z,18.83
2022-09-12T12:46:18.445Z,18.87
2022-09-12T12:50:28.330Z,18.84
2022-09-12T12:54:51.996Z,18.82
2022-09-12T12:59:03.926Z,18.77
2022-09-12T13:03:23.966Z,18.73
2022-09-12T13:07:37.587Z,18.66
2022-09-12T13:11:45.107Z,18.64
2022-09-12T13:15:54.502Z,18.59
2022-09-12T13:20:33.816Z,18.57
2022-09-12T13:24:49.195Z,18.61
2022-09-12T13:29:13.287Z,18.64
2022-09-12T13:33:30.185Z,18.64
2022-09-12T13:37:50.878Z,18.67
2022-09-12T13:42:27.783Z,18.82
2022-09-12T13:46:36.895Z,18.92
2022-09-12T13:50:47.863Z,18.94
2022-09-12T13:54:58.350Z,19.06
2022-09-12T13:59:11.859Z,19.25
2022-09-12T14:03:48.428Z,19.44
2022-09-12T14:07:59.028Z,19.55
2022-09-12T14:12:21.173Z,19.81
2022-09-12T14:16:29.217Z,19.98
2022-09-12T14:20:40.049Z,20.16
2022-09-12T14:24:51.888Z,20.39
2022-09-12T14:28:59.316Z,20.62
2022-09-12T14:33:21.159Z,20.91
2022-09-12T14:37:29.246Z,21.22
2022-09-12T14:41:40.529Z,21.48
2022-09-12T14:45:55.538Z,21.75
2022-09-12T14:50:03.065Z,21.96
2022-09-12T14:54:39.698Z,21.83
2022-09-12T14:58:47.582Z,21.70
2022-09-12T15:02:55.604Z,21.41
2022-09-12T15:07:04.676Z,21.11
2022-09-12T15:11:12.529Z,20.83
2022-09-12T15:15:21.970Z,20.64
2022-09-12T15:19:29.682Z,20.48
2022-09-12T15:23:40.289Z,20.33
2022-09-12T15:27:48.129Z,20.14
2022-09-12T15:31:55.608Z,20.00
2022-09-12T15:36:03.670Z,19.78
2022-09-12T15:40:13.639Z,19.67
2022-09-12T15:44:23.789Z,19.59
2022-09-12T15:48:31.741Z,19.51
2022-09-12T15:52:39.846Z,19.40
2022-09-12T15:56:49.160Z,19.27
2022-09-12T16:00:56.663Z,19.15
2022-09-12T16:05:04.961Z,19.11
2022-09-12T16:09:16.674Z,19.06
2022-09-12T16:13:24.819Z,19.00
2022-09-12T16:17:32.930Z,18.97
2022-09-12T16:21:43.411Z,18.94
2022-09-12T16:25:59.458Z,18.86
2022-09-12T16:30:10.460Z,18.75
2022-09-12T16:34:18.277Z,18.66
2022-09-12T16:38:26.964Z,18.62
2022-09-12T16:42:35.577Z,18.57
2022-09-12T16:46:43.609Z,18.51
2022-09-12T16:51:00.838Z,18.48
2022-09-12T16:55:15.444Z,18.44
2022-09-12T16:59:29.313Z,18.42
2022-09-12T17:03:39.753Z,18.41
2022-09-12T17:07:48.851Z,18.37
2022-09-12T17:11:57.456Z,18.34
2022-09-12T17:16:08.666Z,18.29
2022-09-12T17:20:17.141Z,18.24
2022-09-12T17:24:25.404Z,18.21
2022-09-12T17:28:33.736Z,18.20
2022-09-12T17:32:41.573Z,18.19
2022-09-12T17:36:50.221Z,18.18
2022-09-12T17:41:00.063Z,18.15
2022-09-12T17:45:12.292Z,18.09
2022-09-12T17:49:23.282Z,18.04
2022-09-12T17:53:31.993Z,17.98
2022-09-12T17:57:40.497Z,17.95
2022-09-12T18:02:05.937Z,17.93
2022-09-12T18:06:14.486Z,17.91
2022-09-12T18:10:23.072Z,17.87
2022-09-12T18:14:31.653Z,17.76
2022-09-12T18:18:39.579Z,17.63
2022-09-12T18:22:47.522Z,17.51
2022-09-12T18:26:56.832Z,17.43
2022-09-12T18:31:04.787Z,17.35
2022-09-12T18:35:13.174Z,17.22
2022-09-12T18:39:25.369Z,17.11
2022-09-12T18:43:35.952Z,17.03
2022-09-12T18:47:43.840Z,16.96
2022-09-12T18:51:51.872Z,16.82
2022-09-12T18:56:05.775Z,16.68
2022-09-12T19:00:16.562Z,16.55
2022-09-12T19:04:25.340Z,16.41
2022-09-12T19:08:33.604Z,16.33
2022-09-12T19:12:41.418Z,16.23
2022-09-12T19:16:50.856Z,16.12
2022-09-12T19:21:00.635Z,16.03
2022-09-12T19:25:10.218Z,15.96
2022-09-12T19:29:19.105Z,15.85
2022-09-12T19:33:29.373Z,15.75
2022-09-12T19:37:38.354Z,15.63
2022-09-12T19:41:45.700Z,15.60
2022-09-12T19:45:53.462Z,15.56
2022-09-12T19:50:01.082Z,15.52
2022-09-12T19:54:09.695Z,15.43
2022-09-12T19:58:17.778Z,15.34
2022-09-12T20:02:28.280Z,15.26
2022-09-12T20:06:36.794Z,15.17
2022-09-12T20:10:44.838Z,15.09
2022-09-12T20:14:52.483Z,15.07
2022-09-12T20:19:02.161Z,15.05
2022-09-12T20:23:09.955Z,15.01
2022-09-12T20:27:18.940Z,14.92
2022-09-12T20:31:27.179Z,14.83
2022-09-12T20:35:34.718Z,14.77
2022-09-12T20:39:44.509Z,14.72
2022-09-12T20:43:54.537Z,14.67
2022-09-12T20:48:02.462Z,14.62
2022-09-12T20:52:10.155Z,14.54
2022-09-12T20:56:18.077Z,14.45
2022-09-12T21:00:25.915Z,14.40
2022-09-12T21:04:34.136Z,14.36
2022-09-12T21:08:41.983Z,14.29
2022-09-12T21:12:50.074Z,14.23
2022-09-12T21:16:57.644Z,14.13
2022-09-12T21:21:06.258Z,14.06
2022-09-12T21:25:15.331Z,14.03
2022-09-12T21:29:23.216Z,14.00
2022-09-12T21:33:30.851Z,13.97
2022-09-12T21:37:39.094Z,13.91
2022-09-12T21:41:47.020Z,13.84
2022-09-12T21:46:00.692Z,13.80
2022-09-12T21:50:10.325Z,13.76
2022-09-12T21:54:18.215Z,13.75
2022-09-12T21:58:26.253Z,13.75
2022-09-12T22:02:34.218Z,13.71
2022-09-12T22:06:41.677Z,13.65
2022-09-12T22:10:50.913Z,13.62
2022-09-12T22:14:58.692Z,13.58
2022-09-12T22:19:06.635Z,13.56
2022-09-12T22:23:32.376Z,13.54
2022-09-12T22:27:41.099Z,13.51
2022-09-12T22:31:48.710Z,13.45
2022-09-12T22:35:56.333Z,13.41
2022-09-12T22:40:04.398Z,13.36
2022-09-12T22:44:12.551Z,13.35
2022-09-12T22:48:20.105Z,13.33
2022-09-12T22:52:28.304Z,13.28
2022-09-12T22:56:36.284Z,13.22
2022-09-12T23:00:50.337Z,13.18
2022-09-12T23:04:59.065Z,13.15
2022-09-12T23:09:06.527Z,13.11
2022-09-12T23:13:14.184Z,13.05
2022-09-12T23:17:24.586Z,12.96
2022-09-12T23:21:33.024Z,12.87
2022-09-12T23:25:42.236Z,12.79
2022-09-12T23:29:54.177Z,12.75
2022-09-12T23:34:03.632Z,12.72
2022-09-12T23:38:14.635Z,12.70
2022-09-12T23:42:23.336Z,12.67
2022-09-12T23:46:30.733Z,12.63
2022-09-12T23:50:39.711Z,12.59
2022-09-12T23:54:48.425Z,12.58
2022-09-12T23:58:56.326Z,12.56
